Royal Prince — WCX8037 — position and weather

sailwx.info

Track history (hours):
 
Tides and Currents Weather Stations Pressure Air Temp Water Temp Dewpoint Dewpoint Depression Visibility Wind Speed Wind Dir Waves Ship Positions

Royal Prince

Owner: Golden Gate Scenic Steamship Corp, SAN FRANCISCO, CA. More information available from US FCC via Universal Licensing System and Coast Guard Vessel Documentation Center.

Last reported at 2017-Aug-18 22:00 UTC. Time now 2017-Aug-18 22:15 UTC.
Position N 37°49' W 122°25'.

; draft 3 m.

Type: Passenger vessel. MMSI: 366975760.

Date/timePositionNaut miles runAvg speedWind from/ knotsBaromVisibWave heightAir tempDewpointWater temp
2017-Aug-18 22:00N 37°49' W 122°25'2 4.9
2017-Aug-18 21:30N 37°49' W 122°28'2 4.7
2017-Aug-18 21:00N 37°49' W 122°25'2 3.7
2017-Aug-18 20:30N 37°48' W 122°23'4 7.8
2017-Aug-18 20:00N 37°49' W 122°27'2 4.1
2017-Aug-18 19:30N 37°49' W 122°25'1 2.0
2017-Aug-18 19:00N 37°50' W 122°25'2 3.5
2017-Aug-18 18:30N 37°49' W 122°27'2 3.4
2017-Aug-18 18:00N 37°49' W 122°25'3 5.2
2017-Aug-18 17:31N 37°50' W 122°28'3 5.2
2017-Aug-18 17:00N 37°49' W 122°25'0 0.0
2017-Aug-18 16:31N 37°49' W 122°25'0 0.0
2017-Aug-18 00:45N 37°49' W 122°25'0 0.0
2017-Aug-18 00:30N 37°49' W 122°25'2 3.7
2017-Aug-18 00:00N 37°48' W 122°23'4 8.7
2017-Aug-17 23:30N 37°49' W 122°28'3 5.1
2017-Aug-17 23:00N 37°49' W 122°25'1 1.7
2017-Aug-17 22:30N 37°48' W 122°24'2 3.4
2017-Aug-17 22:00N 37°50' W 122°25'1 2.9
2017-Aug-17 21:30N 37°49' W 122°27'1 2.9
2017-Aug-17 21:00N 37°49' W 122°25'1 2.1
2017-Aug-17 20:30N 37°49' W 122°24'4 7.9
2017-Aug-17 20:00N 37°49' W 122°29'3 6.0
2017-Aug-17 19:30N 37°49' W 122°25'1 1.7
2017-Aug-17 19:00N 37°49' W 122°24'3 5.2
2017-Aug-17 18:30N 37°49' W 122°28'2 4.3
2017-Aug-17 18:00N 37°49' W 122°25'2 4.5
2017-Aug-17 17:30N 37°49' W 122°28'2 4.5
2017-Aug-17 17:00N 37°49' W 122°25'0 0.0
2017-Aug-17 02:17N 37°49' W 122°25'1 4.0
2017-Aug-17 02:00N 37°50' W 122°25'1 2.9
2017-Aug-17 01:30N 37°49' W 122°27'2 3.3
2017-Aug-17 01:00N 37°49' W 122°25'3 5.8
2017-Aug-17 00:30N 37°49' W 122°28'3 5.6
2017-Aug-17 00:00N 37°49' W 122°25'3 5.6
2017-Aug-16 23:30N 37°49' W 122°28'2 4.0
2017-Aug-16 23:00N 37°49' W 122°26'1 1.6
2017-Aug-16 22:30N 37°49' W 122°25'3 5.5
2017-Aug-16 22:00N 37°49' W 122°28'3 5.5
2017-Aug-16 21:30N 37°49' W 122°25'1 1.1
2017-Aug-16 21:00N 37°49' W 122°25'3 5.6
2017-Aug-16 20:30N 37°49' W 122°28'3 5.1
2017-Aug-16 20:00N 37°49' W 122°25'0 0.0
2017-Aug-16 19:30N 37°49' W 122°25'0 0.0
2017-Aug-16 19:00N 37°49' W 122°25'2 3.5
2017-Aug-16 18:30N 37°48' W 122°23'4 7.8
2017-Aug-16 18:00N 37°49' W 122°27'2 4.4
2017-Aug-16 17:30N 37°49' W 122°25'1 1.5
2017-Aug-16 17:00N 37°49' W 122°25'2 5.0
2017-Aug-16 16:30N 37°49' W 122°28'2 4.6
2017-Aug-16 16:00N 37°49' W 122°25'0 0.0
2017-Aug-16 02:19N 37°49' W 122°25'1 2.8
2017-Aug-16 02:01N 37°49' W 122°25'2 3.7
2017-Aug-16 01:30N 37°49' W 122°27'2 3.7
2017-Aug-16 01:00N 37°49' W 122°25'3 5.6
2017-Aug-16 00:30N 37°49' W 122°28'3 5.6
2017-Aug-16 00:00N 37°49' W 122°25'1 1.8
2017-Aug-15 23:31N 37°49' W 122°25'1 2.8
2017-Aug-15 23:00N 37°49' W 122°27'1 2.8
2017-Aug-15 22:30N 37°49' W 122°25'3 5.2
2017-Aug-15 22:01N 37°49' W 122°28'3 5.1
2017-Aug-15 21:30N 37°49' W 122°25'1 1.8
2017-Aug-15 21:00N 37°49' W 122°25'2 3.5
2017-Aug-15 20:30N 37°49' W 122°27'2 3.3
2017-Aug-15 20:00N 37°49' W 122°25'0 0.0
2017-Aug-15 19:30N 37°49' W 122°25'1 2.3
2017-Aug-15 19:00N 37°50' W 122°25'1 2.5
2017-Aug-15 18:30N 37°49' W 122°26'1 2.5
2017-Aug-15 18:00N 37°49' W 122°25'3 5.2
2017-Aug-15 17:30N 37°49' W 122°28'3 5.1
2017-Aug-15 17:00N 37°49' W 122°25'0 0.0
2017-Aug-15 02:31N 37°49' W 122°25'0 0.0
2017-Aug-15 02:30N 37°49' W 122°25'1 2.2
2017-Aug-15 02:00N 37°50' W 122°25'2 3.0
2017-Aug-15 01:30N 37°49' W 122°27'1 2.8
2017-Aug-15 01:00N 37°49' W 122°25'2 4.8
2017-Aug-15 00:30N 37°50' W 122°28'2 4.7
2017-Aug-15 00:00N 37°49' W 122°25'1 2.1
2017-Aug-14 23:30N 37°50' W 122°25'2 3.2
2017-Aug-14 23:00N 37°49' W 122°27'2 3.0
2017-Aug-14 22:30N 37°49' W 122°25'2 4.9
2017-Aug-14 22:00N 37°49' W 122°28'2 4.9
2017-Aug-14 21:31N 37°49' W 122°25'1 1.1
2017-Aug-14 21:00N 37°49' W 122°24'2 4.6
2017-Aug-14 20:30N 37°49' W 122°27'2 3.9
2017-Aug-14 20:00N 37°49' W 122°25'0 0.0
2017-Aug-14 19:30N 37°49' W 122°25'1 1.9
2017-Aug-14 19:00N 37°49' W 122°25'2 3.2
2017-Aug-14 18:30N 37°49' W 122°27'2 3.3
2017-Aug-14 18:01N 37°49' W 122°25'2 4.7
2017-Aug-14 17:31N 37°49' W 122°28'2 4.7
2017-Aug-14 17:01N 37°49' W 122°25'0 0.0
2017-Aug-14 02:19N 37°49' W 122°25'1 3.7
2017-Aug-14 02:00N 37°50' W 122°25'1 2.7
2017-Aug-14 01:30N 37°49' W 122°27'1 2.6
2017-Aug-14 01:00N 37°49' W 122°25'3 5.1
2017-Aug-14 00:30N 37°49' W 122°28'3 5.1
2017-Aug-14 00:00N 37°49' W 122°25'1 2.6
2017-Aug-13 23:30N 37°50' W 122°25'1 2.0
2017-Aug-13 23:00N 37°49' W 122°26'1 1.7
2017-Aug-13 22:30N 37°49' W 122°25'3 5.9
2017-Aug-13 22:01N 37°49' W 122°28'3 5.7
2017-Aug-13 21:31N 37°49' W 122°25'1 1.2
2017-Aug-13 21:01N 37°49' W 122°24'2 4.7
2017-Aug-13 20:31N 37°49' W 122°27'2 4.0
2017-Aug-13 20:01N 37°49' W 122°25'0 0.0
2017-Aug-13 19:30N 37°49' W 122°25'1 2.7
2017-Aug-13 19:01N 37°50' W 122°26'1 2.1
2017-Aug-13 18:31N 37°49' W 122°26'1 1.5
2017-Aug-13 18:00N 37°49' W 122°25'3 5.1
2017-Aug-13 17:30N 37°49' W 122°28'3 5.2
2017-Aug-13 17:01N 37°49' W 122°25'0 0.0
2017-Aug-13 02:20N 37°49' W 122°25'1 3.9
2017-Aug-13 02:00N 37°50' W 122°25'1 2.5
2017-Aug-13 01:30N 37°49' W 122°26'1 2.4
2017-Aug-13 01:00N 37°49' W 122°25'3 5.3
2017-Aug-13 00:30N 37°49' W 122°28'3 5.0
2017-Aug-12 23:59N 37°49' W 122°25'1 3.1
2017-Aug-12 23:30N 37°50' W 122°26'1 2.0
2017-Aug-12 23:00N 37°49' W 122°26'1 1.5
2017-Aug-12 22:30N 37°49' W 122°25'3 5.5
2017-Aug-12 22:00N 37°49' W 122°28'3 5.4
2017-Aug-12 21:30N 37°49' W 122°25'1 1.2
2017-Aug-12 21:00N 37°49' W 122°24'3 5.6
2017-Aug-12 20:30N 37°49' W 122°28'2 4.5
2017-Aug-12 20:00N 37°49' W 122°25'0 0.0
2017-Aug-12 19:30N 37°49' W 122°25'1 2.0
2017-Aug-12 19:01N 37°50' W 122°25'2 3.0
2017-Aug-12 18:30N 37°49' W 122°27'1 3.0
2017-Aug-12 18:01N 37°49' W 122°25'3 5.2
2017-Aug-12 17:30N 37°49' W 122°28'3 5.1
2017-Aug-12 17:00N 37°49' W 122°25'0 0.0
2017-Aug-12 02:19N 37°49' W 122°25'1 3.3
2017-Aug-12 02:00N 37°50' W 122°25'2 3.5
2017-Aug-12 01:31N 37°49' W 122°27'2 3.6
2017-Aug-12 01:00N 37°49' W 122°25'2 4.2
2017-Aug-12 00:30N 37°49' W 122°27'2 4.2
2017-Aug-12 00:00N 37°49' W 122°25'1 1.7
2017-Aug-11 23:30N 37°49' W 122°25'2 3.6
2017-Aug-11 23:00N 37°49' W 122°27'2 3.5
2017-Aug-11 22:30N 37°49' W 122°25'3 5.2
2017-Aug-11 22:00N 37°49' W 122°28'3 5.2
2017-Aug-11 21:30N 37°49' W 122°25'1 1.3
2017-Aug-11 21:00N 37°49' W 122°24'2 4.7
2017-Aug-11 20:30N 37°49' W 122°27'2 3.8
2017-Aug-11 20:00N 37°49' W 122°25'0 0.0
2017-Aug-11 19:30N 37°49' W 122°25'1 2.2
2017-Aug-11 19:00N 37°50' W 122°25'1 2.8
2017-Aug-11 18:30N 37°49' W 122°27'1 2.6
2017-Aug-11 18:00N 37°49' W 122°25'3 5.2
2017-Aug-11 17:30N 37°50' W 122°28'3 5.2
2017-Aug-11 17:00N 37°49' W 122°25'0 0.0
2017-Aug-11 16:30N 37°49' W 122°25'0 0.4
2017-Aug-11 16:00N 37°49' W 122°25'0 0.0
2017-Aug-11 04:43N 37°49' W 122°25'0 0.0
2017-Aug-11 04:30N 37°49' W 122°25'1 2.6
2017-Aug-11 04:00N 37°49' W 122°27'2 3.9
2017-Aug-11 03:30N 37°50' W 122°28'1 2.1
2017-Aug-11 03:00N 37°51' W 122°28'3 5.1
2017-Aug-11 02:30N 37°50' W 122°25'2 3.4
2017-Aug-11 02:00N 37°49' W 122°25'0 0.0
2017-Aug-11 01:30N 37°49' W 122°25'0 0.0
2017-Aug-11 01:00N 37°49' W 122°25'0 0.0
2017-Aug-11 00:30N 37°49' W 122°25'2 3.7
2017-Aug-11 00:00N 37°47' W 122°23'1 2.8
2017-Aug-10 23:30N 37°49' W 122°24'4 8.0
2017-Aug-10 23:00N 37°49' W 122°29'3 6.1
2017-Aug-10 22:30N 37°49' W 122°25'0 0.0
2017-Aug-10 22:00N 37°49' W 122°25'0 0.0
2017-Aug-10 02:20N 37°49' W 122°25'1 3.3
2017-Aug-10 02:00N 37°50' W 122°25'1 2.8
2017-Aug-10 01:31N 37°49' W 122°27'2 3.0
2017-Aug-10 01:00N 37°49' W 122°25'3 5.9
2017-Aug-10 00:30N 37°49' W 122°29'3 5.9
2017-Aug-10 00:00N 37°49' W 122°25'1 2.9
2017-Aug-09 23:30N 37°50' W 122°26'1 2.0
2017-Aug-09 23:00N 37°49' W 122°26'1 1.1
2017-Aug-09 22:30N 37°49' W 122°25'3 5.9
2017-Aug-09 22:00N 37°49' W 122°28'3 5.9
2017-Aug-09 21:30N 37°49' W 122°25'0 0.9
2017-Aug-09 21:01N 37°49' W 122°24'3 5.3
2017-Aug-09 20:30N 37°49' W 122°28'2 4.7
2017-Aug-09 20:00N 37°49' W 122°25'0 0.0
2017-Aug-09 19:30N 37°49' W 122°25'1 1.6
2017-Aug-09 19:00N 37°49' W 122°25'2 3.8
2017-Aug-09 18:30N 37°49' W 122°27'2 3.2
2017-Aug-09 18:00N 37°49' W 122°25'2 4.0
2017-Aug-09 17:30N 37°49' W 122°27'2 4.0
2017-Aug-09 17:00N 37°49' W 122°25'0 0.0
2017-Aug-09 02:20N 37°49' W 122°25'1 3.1
2017-Aug-09 02:00N 37°50' W 122°25'2 3.3
2017-Aug-09 01:31N 37°49' W 122°27'2 3.4
2017-Aug-09 01:00N 37°49' W 122°25'2 4.9
2017-Aug-09 00:30N 37°49' W 122°28'2 4.9
2017-Aug-09 00:00N 37°49' W 122°25'1 2.3
2017-Aug-08 23:30N 37°50' W 122°25'2 3.1
2017-Aug-08 23:00N 37°49' W 122°27'2 3.0
2017-Aug-08 22:30N 37°49' W 122°25'  
Track history (hours):
 
Tides and Currents Weather Stations Pressure Air Temp Water Temp Dewpoint Dewpoint Depression Visibility Wind Speed Wind Dir Waves Ship Positions

Royal Prince

Owner: Golden Gate Scenic Steamship Corp, SAN FRANCISCO, CA. More information available from US FCC via Universal Licensing System and Coast Guard Vessel Documentation Center.

Last reported at 2017-Aug-18 22:00 UTC. Time now 2017-Aug-18 22:15 UTC.
Position N 37°49' W 122°25'.

; draft 3 m.

Type: Passenger vessel. MMSI: 366975760.

Date/timePositionNaut miles runAvg speedWind from/ knotsBaromVisibWave heightAir tempDewpointWater temp
2017-Aug-18 22:00N 37°49' W 122°25'2 4.9
2017-Aug-18 21:30N 37°49' W 122°28'2 4.7
2017-Aug-18 21:00N 37°49' W 122°25'2 3.7
2017-Aug-18 20:30N 37°48' W 122°23'4 7.8
2017-Aug-18 20:00N 37°49' W 122°27'2 4.1
2017-Aug-18 19:30N 37°49' W 122°25'1 2.0
2017-Aug-18 19:00N 37°50' W 122°25'2 3.5
2017-Aug-18 18:30N 37°49' W 122°27'2 3.4
2017-Aug-18 18:00N 37°49' W 122°25'3 5.2
2017-Aug-18 17:31N 37°50' W 122°28'3 5.2
2017-Aug-18 17:00N 37°49' W 122°25'0 0.0
2017-Aug-18 16:31N 37°49' W 122°25'0 0.0
2017-Aug-18 00:45N 37°49' W 122°25'0 0.0
2017-Aug-18 00:30N 37°49' W 122°25'2 3.7
2017-Aug-18 00:00N 37°48' W 122°23'4 8.7
2017-Aug-17 23:30N 37°49' W 122°28'3 5.1
2017-Aug-17 23:00N 37°49' W 122°25'1 1.7
2017-Aug-17 22:30N 37°48' W 122°24'2 3.4
2017-Aug-17 22:00N 37°50' W 122°25'1 2.9
2017-Aug-17 21:30N 37°49' W 122°27'1 2.9
2017-Aug-17 21:00N 37°49' W 122°25'1 2.1
2017-Aug-17 20:30N 37°49' W 122°24'4 7.9
2017-Aug-17 20:00N 37°49' W 122°29'3 6.0
2017-Aug-17 19:30N 37°49' W 122°25'1 1.7
2017-Aug-17 19:00N 37°49' W 122°24'3 5.2
2017-Aug-17 18:30N 37°49' W 122°28'2 4.3
2017-Aug-17 18:00N 37°49' W 122°25'2 4.5
2017-Aug-17 17:30N 37°49' W 122°28'2 4.5
2017-Aug-17 17:00N 37°49' W 122°25'0 0.0
2017-Aug-17 02:17N 37°49' W 122°25'1 4.0
2017-Aug-17 02:00N 37°50' W 122°25'1 2.9
2017-Aug-17 01:30N 37°49' W 122°27'2 3.3
2017-Aug-17 01:00N 37°49' W 122°25'3 5.8
2017-Aug-17 00:30N 37°49' W 122°28'3 5.6
2017-Aug-17 00:00N 37°49' W 122°25'3 5.6
2017-Aug-16 23:30N 37°49' W 122°28'2 4.0
2017-Aug-16 23:00N 37°49' W 122°26'1 1.6
2017-Aug-16 22:30N 37°49' W 122°25'3 5.5
2017-Aug-16 22:00N 37°49' W 122°28'3 5.5
2017-Aug-16 21:30N 37°49' W 122°25'1 1.1
2017-Aug-16 21:00N 37°49' W 122°25'3 5.6
2017-Aug-16 20:30N 37°49' W 122°28'3 5.1
2017-Aug-16 20:00N 37°49' W 122°25'0 0.0
2017-Aug-16 19:30N 37°49' W 122°25'0 0.0
2017-Aug-16 19:00N 37°49' W 122°25'2 3.5
2017-Aug-16 18:30N 37°48' W 122°23'4 7.8
2017-Aug-16 18:00N 37°49' W 122°27'2 4.4
2017-Aug-16 17:30N 37°49' W 122°25'1 1.5
2017-Aug-16 17:00N 37°49' W 122°25'2 5.0
2017-Aug-16 16:30N 37°49' W 122°28'2 4.6
2017-Aug-16 16:00N 37°49' W 122°25'0 0.0
2017-Aug-16 02:19N 37°49' W 122°25'1 2.8
2017-Aug-16 02:01N 37°49' W 122°25'2 3.7
2017-Aug-16 01:30N 37°49' W 122°27'2 3.7
2017-Aug-16 01:00N 37°49' W 122°25'3 5.6
2017-Aug-16 00:30N 37°49' W 122°28'3 5.6
2017-Aug-16 00:00N 37°49' W 122°25'1 1.8
2017-Aug-15 23:31N 37°49' W 122°25'1 2.8
2017-Aug-15 23:00N 37°49' W 122°27'1 2.8
2017-Aug-15 22:30N 37°49' W 122°25'3 5.2
2017-Aug-15 22:01N 37°49' W 122°28'3 5.1
2017-Aug-15 21:30N 37°49' W 122°25'1 1.8
2017-Aug-15 21:00N 37°49' W 122°25'2 3.5
2017-Aug-15 20:30N 37°49' W 122°27'2 3.3
2017-Aug-15 20:00N 37°49' W 122°25'0 0.0
2017-Aug-15 19:30N 37°49' W 122°25'1 2.3
2017-Aug-15 19:00N 37°50' W 122°25'1 2.5
2017-Aug-15 18:30N 37°49' W 122°26'1 2.5
2017-Aug-15 18:00N 37°49' W 122°25'3 5.2
2017-Aug-15 17:30N 37°49' W 122°28'3 5.1
2017-Aug-15 17:00N 37°49' W 122°25'0 0.0
2017-Aug-15 02:31N 37°49' W 122°25'0 0.0
2017-Aug-15 02:30N 37°49' W 122°25'1 2.2
2017-Aug-15 02:00N 37°50' W 122°25'2 3.0
2017-Aug-15 01:30N 37°49' W 122°27'1 2.8
2017-Aug-15 01:00N 37°49' W 122°25'2 4.8
2017-Aug-15 00:30N 37°50' W 122°28'2 4.7
2017-Aug-15 00:00N 37°49' W 122°25'1 2.1
2017-Aug-14 23:30N 37°50' W 122°25'2 3.2
2017-Aug-14 23:00N 37°49' W 122°27'2 3.0
2017-Aug-14 22:30N 37°49' W 122°25'2 4.9
2017-Aug-14 22:00N 37°49' W 122°28'2 4.9
2017-Aug-14 21:31N 37°49' W 122°25'1 1.1
2017-Aug-14 21:00N 37°49' W 122°24'2 4.6
2017-Aug-14 20:30N 37°49' W 122°27'2 3.9
2017-Aug-14 20:00N 37°49' W 122°25'0 0.0
2017-Aug-14 19:30N 37°49' W 122°25'1 1.9
2017-Aug-14 19:00N 37°49' W 122°25'2 3.2
2017-Aug-14 18:30N 37°49' W 122°27'2 3.3
2017-Aug-14 18:01N 37°49' W 122°25'2 4.7
2017-Aug-14 17:31N 37°49' W 122°28'2 4.7
2017-Aug-14 17:01N 37°49' W 122°25'0 0.0
2017-Aug-14 02:19N 37°49' W 122°25'1 3.7
2017-Aug-14 02:00N 37°50' W 122°25'1 2.7
2017-Aug-14 01:30N 37°49' W 122°27'1 2.6
2017-Aug-14 01:00N 37°49' W 122°25'3 5.1
2017-Aug-14 00:30N 37°49' W 122°28'3 5.1
2017-Aug-14 00:00N 37°49' W 122°25'1 2.6
2017-Aug-13 23:30N 37°50' W 122°25'1 2.0
2017-Aug-13 23:00N 37°49' W 122°26'1 1.7
2017-Aug-13 22:30N 37°49' W 122°25'3 5.9
2017-Aug-13 22:01N 37°49' W 122°28'3 5.7
2017-Aug-13 21:31N 37°49' W 122°25'1 1.2
2017-Aug-13 21:01N 37°49' W 122°24'2 4.7
2017-Aug-13 20:31N 37°49' W 122°27'2 4.0
2017-Aug-13 20:01N 37°49' W 122°25'0 0.0
2017-Aug-13 19:30N 37°49' W 122°25'1 2.7
2017-Aug-13 19:01N 37°50' W 122°26'1 2.1
2017-Aug-13 18:31N 37°49' W 122°26'1 1.5
2017-Aug-13 18:00N 37°49' W 122°25'3 5.1
2017-Aug-13 17:30N 37°49' W 122°28'3 5.2
2017-Aug-13 17:01N 37°49' W 122°25'0 0.0
2017-Aug-13 02:20N 37°49' W 122°25'1 3.9
2017-Aug-13 02:00N 37°50' W 122°25'1 2.5
2017-Aug-13 01:30N 37°49' W 122°26'1 2.4
2017-Aug-13 01:00N 37°49' W 122°25'3 5.3
2017-Aug-13 00:30N 37°49' W 122°28'3 5.0
2017-Aug-12 23:59N 37°49' W 122°25'1 3.1
2017-Aug-12 23:30N 37°50' W 122°26'1 2.0
2017-Aug-12 23:00N 37°49' W 122°26'1 1.5
2017-Aug-12 22:30N 37°49' W 122°25'3 5.5
2017-Aug-12 22:00N 37°49' W 122°28'3 5.4
2017-Aug-12 21:30N 37°49' W 122°25'1 1.2
2017-Aug-12 21:00N 37°49' W 122°24'3 5.6
2017-Aug-12 20:30N 37°49' W 122°28'2 4.5
2017-Aug-12 20:00N 37°49' W 122°25'0 0.0
2017-Aug-12 19:30N 37°49' W 122°25'1 2.0
2017-Aug-12 19:01N 37°50' W 122°25'2 3.0
2017-Aug-12 18:30N 37°49' W 122°27'1 3.0
2017-Aug-12 18:01N 37°49' W 122°25'3 5.2
2017-Aug-12 17:30N 37°49' W 122°28'3 5.1
2017-Aug-12 17:00N 37°49' W 122°25'0 0.0
2017-Aug-12 02:19N 37°49' W 122°25'1 3.3
2017-Aug-12 02:00N 37°50' W 122°25'2 3.5
2017-Aug-12 01:31N 37°49' W 122°27'2 3.6
2017-Aug-12 01:00N 37°49' W 122°25'2 4.2
2017-Aug-12 00:30N 37°49' W 122°27'2 4.2
2017-Aug-12 00:00N 37°49' W 122°25'1 1.7
2017-Aug-11 23:30N 37°49' W 122°25'2 3.6
2017-Aug-11 23:00N 37°49' W 122°27'2 3.5
2017-Aug-11 22:30N 37°49' W 122°25'3 5.2
2017-Aug-11 22:00N 37°49' W 122°28'3 5.2
2017-Aug-11 21:30N 37°49' W 122°25'1 1.3
2017-Aug-11 21:00N 37°49' W 122°24'2 4.7
2017-Aug-11 20:30N 37°49' W 122°27'2 3.8
2017-Aug-11 20:00N 37°49' W 122°25'0 0.0
2017-Aug-11 19:30N 37°49' W 122°25'1 2.2
2017-Aug-11 19:00N 37°50' W 122°25'1 2.8
2017-Aug-11 18:30N 37°49' W 122°27'1 2.6
2017-Aug-11 18:00N 37°49' W 122°25'3 5.2
2017-Aug-11 17:30N 37°50' W 122°28'3 5.2
2017-Aug-11 17:00N 37°49' W 122°25'0 0.0
2017-Aug-11 16:30N 37°49' W 122°25'0 0.4
2017-Aug-11 16:00N 37°49' W 122°25'0 0.0
2017-Aug-11 04:43N 37°49' W 122°25'0 0.0
2017-Aug-11 04:30N 37°49' W 122°25'1 2.6
2017-Aug-11 04:00N 37°49' W 122°27'2 3.9
2017-Aug-11 03:30N 37°50' W 122°28'1 2.1
2017-Aug-11 03:00N 37°51' W 122°28'3 5.1
2017-Aug-11 02:30N 37°50' W 122°25'2 3.4
2017-Aug-11 02:00N 37°49' W 122°25'0 0.0
2017-Aug-11 01:30N 37°49' W 122°25'0 0.0
2017-Aug-11 01:00N 37°49' W 122°25'0 0.0
2017-Aug-11 00:30N 37°49' W 122°25'2 3.7
2017-Aug-11 00:00N 37°47' W 122°23'1 2.8
2017-Aug-10 23:30N 37°49' W 122°24'4 8.0
2017-Aug-10 23:00N 37°49' W 122°29'3 6.1
2017-Aug-10 22:30N 37°49' W 122°25'0 0.0
2017-Aug-10 22:00N 37°49' W 122°25'0 0.0
2017-Aug-10 02:20N 37°49' W 122°25'1 3.3
2017-Aug-10 02:00N 37°50' W 122°25'1 2.8
2017-Aug-10 01:31N 37°49' W 122°27'2 3.0
2017-Aug-10 01:00N 37°49' W 122°25'3 5.9
2017-Aug-10 00:30N 37°49' W 122°29'3 5.9
2017-Aug-10 00:00N 37°49' W 122°25'1 2.9
2017-Aug-09 23:30N 37°50' W 122°26'1 2.0
2017-Aug-09 23:00N 37°49' W 122°26'1 1.1
2017-Aug-09 22:30N 37°49' W 122°25'3 5.9
2017-Aug-09 22:00N 37°49' W 122°28'3 5.9
2017-Aug-09 21:30N 37°49' W 122°25'0 0.9
2017-Aug-09 21:01N 37°49' W 122°24'3 5.3
2017-Aug-09 20:30N 37°49' W 122°28'2 4.7
2017-Aug-09 20:00N 37°49' W 122°25'0 0.0
2017-Aug-09 19:30N 37°49' W 122°25'1 1.6
2017-Aug-09 19:00N 37°49' W 122°25'2 3.8
2017-Aug-09 18:30N 37°49' W 122°27'2 3.2
2017-Aug-09 18:00N 37°49' W 122°25'2 4.0
2017-Aug-09 17:30N 37°49' W 122°27'2 4.0
2017-Aug-09 17:00N 37°49' W 122°25'0 0.0
2017-Aug-09 02:20N 37°49' W 122°25'1 3.1
2017-Aug-09 02:00N 37°50' W 122°25'2 3.3
2017-Aug-09 01:31N 37°49' W 122°27'2 3.4
2017-Aug-09 01:00N 37°49' W 122°25'2 4.9
2017-Aug-09 00:30N 37°49' W 122°28'2 4.9
2017-Aug-09 00:00N 37°49' W 122°25'1 2.3
2017-Aug-08 23:30N 37°50' W 122°25'2 3.1
2017-Aug-08 23:00N 37°49' W 122°27'2 3.0
2017-Aug-08 22:30N 37°49' W 122°25'  

Dump ship's entire track history